Time;durP1;ratioP1;P1;durP2;ratioP2;P2;SDS_P1;SDS_P2;PMS_P1;PMS_P2;Temp;Humidity;BMP_temperature;BMP_pressure;BME280_temperature;BME280_humidity;BME280_pressure;Samples;Min_cycle;Max_cycle;Signal;HPM_P1;HPM_P2
2023/01/04 00:00:21;;;;;;;;;;;;;;;-2.38;100.00;94139.78;2081811;28;19909;-86
2023/01/04 00:01:22;;;;;;;;;;;;;;;-2.36;100.00;94139.50;2081944;28;19912;-87
2023/01/04 00:02:22;;;;;;;;;;;;;;;-2.32;100.00;94145.66;2065600;28;19977;-88
2023/01/04 00:03:23;;;;;;;;;;;;;;;-2.27;100.00;94140.25;2058408;28;19921;-88
2023/01/04 00:04:24;;;;;;;;;;;;;;;-2.39;100.00;94135.63;2049919;28;19918;-87
2023/01/04 00:05:25;;;;;;;;;;;;;;;-2.37;100.00;94135.31;2049815;28;20032;-88
2023/01/04 00:06:26;;;;;;;;;;;;;;;-2.32;100.00;94135.19;2050326;28;19929;-87
2023/01/04 00:07:31;;;;;;;;;;;;;;;-2.34;100.00;94129.47;2066474;28;19909;-87
2023/01/04 00:08:33;;;;;;;;;;;;;;;-2.30;100.00;94130.41;2065776;28;19910;-87
2023/01/04 00:09:34;;;;;;;;;;;;;;;-2.25;100.00;94124.22;2057943;28;20395;-86
2023/01/04 00:10:34;;;;;;;;;;;;;;;-2.24;100.00;94126.53;2049425;29;19910;-87
2023/01/04 00:11:35;;;;;;;;;;;;;;;-2.12;100.00;94128.53;2049630;28;19932;-86
2023/01/04 00:12:36;;;;;;;;;;;;;;;-2.15;100.00;94134.38;2049681;28;19953;-85
2023/01/04 00:13:37;;;;;;;;;;;;;;;-2.21;100.00;94144.25;2065800;28;20286;-87
2023/01/04 00:14:38;;;;;;;;;;;;;;;-2.30;100.00;94143.50;2065627;28;19910;-87
2023/01/04 00:15:39;;;;;;;;;;;;;;;-2.35;100.00;94141.03;2057521;28;19918;-87
2023/01/04 00:16:39;;;;;;;;;;;;;;;-2.22;100.00;94129.63;2065647;28;19917;-87
2023/01/04 00:17:40;;;;;;;;;;;;;;;-2.23;100.00;94137.81;2057826;28;19917;-86
2023/01/04 00:18:41;;;;;;;;;;;;;;;-2.31;100.00;94129.63;2057542;28;19984;-87
2023/01/04 00:19:42;;;;;;;;;;;;;;;-2.33;100.00;94129.19;2063615;28;19956;-86
2023/01/04 00:20:43;;;;;;;;;;;;;;;-2.37;100.00;94123.03;2057307;28;19960;-86
2023/01/04 00:21:44;;;;;;;;;;;;;;;-2.35;100.00;94126.09;2065729;28;19921;-86
2023/01/04 00:22:45;;;;;;;;;;;;;;;-2.35;100.00;94130.56;2049568;29;19933;-86
2023/01/04 00:23:47;;;;;;;;;;;;;;;-2.36;100.00;94129.03;2059742;28;19968;-86
2023/01/04 00:24:48;;;;;;;;;;;;;;;-2.37;100.00;94135.31;2065594;28;19910;-86
2023/01/04 00:25:49;;;;;;;;;;;;;;;-2.36;100.00;94129.03;2057718;28;19976;-86
2023/01/04 00:26:50;;;;;;;;;;;;;;;-2.41;100.00;94126.56;2073667;28;19919;-87
2023/01/04 00:27:51;;;;;;;;;;;;;;;-2.46;100.00;94124.84;2073312;28;19914;-86
2023/01/04 00:28:53;;;;;;;;;;;;;;;-2.45;100.00;94128.25;2073550;28;19909;-87
2023/01/04 00:29:54;;;;;;;;;;;;;;;-2.50;100.00;94126.56;2065763;28;20273;-87
2023/01/04 00:31:00;;;;;;;;;;;;;;;-2.51;100.00;94121.63;2069970;28;19925;-86
2023/01/04 00:32:01;;;;;;;;;;;;;;;-2.56;100.00;94120.69;2065332;28;19976;-87
2023/01/04 00:33:02;;;;;;;;;;;;;;;-2.51;100.00;94108.53;2065608;28;20355;-87
2023/01/04 00:34:03;;;;;;;;;;;;;;;-2.49;100.00;94116.88;2056716;28;20375;-86
2023/01/04 00:35:04;;;;;;;;;;;;;;;-2.56;100.00;94117.31;2053493;28;19918;-86
2023/01/04 00:36:10;;;;;;;;;;;;;;;-2.51;100.00;94114.53;2065564;28;20355;-86
2023/01/04 00:37:20;;;;;;;;;;;;;;;-2.57;100.00;94118.41;2065179;28;19918;-85
2023/01/04 00:38:20;;;;;;;;;;;;;;;-2.50;100.00;94108.25;2055380;28;19924;-86
2023/01/04 00:39:21;;;;;;;;;;;;;;;-2.40;100.00;94115.78;2057423;28;19910;-88
2023/01/04 00:40:22;;;;;;;;;;;;;;;-2.46;100.00;94116.22;2049274;28;19979;-88
2023/01/04 00:41:23;;;;;;;;;;;;;;;-2.34;100.00;94104.06;2049642;28;20366;-87
2023/01/04 00:42:24;;;;;;;;;;;;;;;-2.46;100.00;94109.13;2057634;28;19970;-87
2023/01/04 00:43:25;;;;;;;;;;;;;;;-2.43;100.00;94113.00;2065440;28;19925;-86
2023/01/04 00:44:27;;;;;;;;;;;;;;;-2.41;100.00;94105.63;2049277;29;19937;-87
2023/01/04 00:45:27;;;;;;;;;;;;;;;-2.42;100.00;94117.16;2061134;28;19918;-87
2023/01/04 00:46:36;;;;;;;;;;;;;;;-2.45;100.00;94107.31;2076641;28;19940;-87
2023/01/04 00:47:37;;;;;;;;;;;;;;;-2.43;100.00;94105.91;2058580;28;19910;-85
2023/01/04 00:48:38;;;;;;;;;;;;;;;-2.42;100.00;94111.91;2065617;28;20701;-87
2023/01/04 00:49:39;;;;;;;;;;;;;;;-2.44;100.00;94108.84;2070811;28;19964;-86
2023/01/04 00:50:39;;;;;;;;;;;;;;;-2.53;100.00;94104.38;2057232;28;20056;-86
2023/01/04 00:52:12;;;;;;;;;;;;;;;-2.47;100.00;94107.59;2049772;28;19918;-86
2023/01/04 00:53:14;;;;;;;;;;;;;;;-2.44;100.00;94106.22;2061866;28;20007;-87
2023/01/04 00:54:15;;;;;;;;;;;;;;;-2.49;100.00;94107.16;2057290;28;19910;-86
2023/01/04 00:55:16;;;;;;;;;;;;;;;-2.53;100.00;94103.63;2057396;28;19960;-86
2023/01/04 00:56:16;;;;;;;;;;;;;;;-2.59;100.00;94110.88;2063650;28;19949;-86
2023/01/04 00:57:26;;;;;;;;;;;;;;;-2.55;100.00;94105.75;2058846;28;20878;-87
2023/01/04 00:58:27;;;;;;;;;;;;;;;-2.51;100.00;94098.06;2064983;28;19914;-88
2023/01/04 00:59:28;;;;;;;;;;;;;;;-2.54;100.00;94097.63;2065406;28;20365;-88
2023/01/04 01:00:29;;;;;;;;;;;;;;;-2.54;100.00;94097.63;2057484;28;19913;-88
2023/01/04 01:01:39;;;;;;;;;;;;;;;-2.56;100.00;94093.75;2058187;28;19957;-88
2023/01/04 01:02:40;;;;;;;;;;;;;;;-2.55;100.00;94095.28;2066691;28;20444;-88
2023/01/04 01:03:43;;;;;;;;;;;;;;;-2.45;100.00;94086.38;2058796;28;20013;-86
2023/01/04 01:04:43;;;;;;;;;;;;;;;-2.46;100.00;94079.59;2057710;28;20490;-86
2023/01/04 01:05:44;;;;;;;;;;;;;;;-2.53;100.00;94080.06;2081745;28;19952;-87
2023/01/04 01:06:45;;;;;;;;;;;;;;;-2.56;100.00;94088.53;2078123;28;19928;-85
2023/01/04 01:07:46;;;;;;;;;;;;;;;-2.46;100.00;94087.44;2057362;28;19910;-87
2023/01/04 01:08:47;;;;;;;;;;;;;;;-2.49;100.00;94081.00;2057299;28;19964;-87
2023/01/04 01:09:48;;;;;;;;;;;;;;;-2.50;100.00;94081.28;2057014;28;19910;-86
2023/01/04 01:10:49;;;;;;;;;;;;;;;-2.56;100.00;94085.91;2057057;28;19942;-86
2023/01/04 01:11:52;;;;;;;;;;;;;;;-2.54;100.00;94087.16;2065411;28;20645;-86
2023/01/04 01:12:53;;;;;;;;;;;;;;;-2.56;100.00;94075.44;2073153;28;19948;-86
2023/01/04 01:13:54;;;;;;;;;;;;;;;-2.46;100.00;94080.34;2065225;28;20358;-87
2023/01/04 01:15:40;;;;;;;;;;;;;;;-2.55;100.00;94075.16;2064827;28;20652;-86
2023/01/04 01:16:46;;;;;;;;;;;;;;;-2.49;100.00;94085.47;2063484;28;20576;-86
2023/01/04 01:17:47;;;;;;;;;;;;;;;-2.51;100.00;94077.91;2065188;28;19910;-86
2023/01/04 01:18:48;;;;;;;;;;;;;;;-2.43;100.00;94086.81;2071720;28;19924;-86
2023/01/04 01:19:48;;;;;;;;;;;;;;;-2.44;100.00;94080.81;2066443;28;20012;-85
2023/01/04 01:20:49;;;;;;;;;;;;;;;-2.43;100.00;94079.75;2057102;28;19934;-87
2023/01/04 01:21:50;;;;;;;;;;;;;;;-2.50;100.00;94076.84;2057143;28;19910;-87
2023/01/04 01:22:51;;;;;;;;;;;;;;;-2.52;100.00;94078.97;2065033;28;19921;-85
2023/01/04 01:23:53;;;;;;;;;;;;;;;-2.43;100.00;94077.13;2064918;28;19909;-85
2023/01/04 01:24:54;;;;;;;;;;;;;;;-2.36;100.00;94080.06;2065426;28;19910;-87
2023/01/04 01:25:58;;;;;;;;;;;;;;;-2.38;100.00;94082.19;2073116;28;19964;-86
2023/01/04 01:26:59;;;;;;;;;;;;;;;-2.42;100.00;94073.41;2065446;28;19913;-86
2023/01/04 01:28:01;;;;;;;;;;;;;;;-2.45;100.00;94087.16;2064928;28;19917;-85
2023/01/04 01:29:02;;;;;;;;;;;;;;;-2.39;100.00;94080.66;2065096;28;19909;-86
2023/01/04 01:30:03;;;;;;;;;;;;;;;-2.32;100.00;94091.44;2073021;28;19917;-86
2023/01/04 01:31:05;;;;;;;;;;;;;;;-2.30;100.00;94084.03;2064623;28;19909;-86
2023/01/04 01:32:12;;;;;;;;;;;;;;;-2.32;100.00;94082.81;2058064;28;19914;-86
2023/01/04 01:33:13;;;;;;;;;;;;;;;-2.35;100.00;94083.44;2055752;28;19910;-86
2023/01/04 01:34:14;;;;;;;;;;;;;;;-2.39;100.00;94082.50;2048822;28;19950;-87
2023/01/04 01:35:15;;;;;;;;;;;;;;;-2.44;100.00;94082.69;2044229;28;20386;-86
2023/01/04 01:36:22;;;;;;;;;;;;;;;-2.42;100.00;94081.28;2056129;28;20686;-86
2023/01/04 01:37:23;;;;;;;;;;;;;;;-2.46;100.00;94087.44;2053816;28;19921;-86
2023/01/04 01:38:24;;;;;;;;;;;;;;;-2.54;100.00;94097.63;2059883;28;19925;-86
2023/01/04 01:39:24;;;;;;;;;;;;;;;-2.46;100.00;94095.28;2056022;28;20355;-86
2023/01/04 01:40:25;;;;;;;;;;;;;;;-2.43;100.00;94092.81;2052938;28;19977;-86
2023/01/04 01:41:27;;;;;;;;;;;;;;;-2.44;100.00;94087.91;2056901;28;19918;-87
2023/01/04 01:42:28;;;;;;;;;;;;;;;-2.50;100.00;94092.53;2048927;28;20279;-86
2023/01/04 01:43:47;;;;;;;;;;;;;;;-2.59;100.00;94092.53;2056919;28;20009;-85
2023/01/04 01:44:59;;;;;;;;;;;;;;;-2.54;100.00;94091.63;2059221;28;19935;-86
2023/01/04 01:46:00;;;;;;;;;;;;;;;-2.51;100.00;94095.44;2053890;28;19914;-85
2023/01/04 01:47:03;;;;;;;;;;;;;;;-2.46;100.00;94100.53;2048722;28;20454;-85
2023/01/04 01:48:09;;;;;;;;;;;;;;;-2.53;100.00;94093.91;2061836;28;19914;-86
2023/01/04 01:49:10;;;;;;;;;;;;;;;-2.55;100.00;94093.47;2065498;28;19963;-87
2023/01/04 01:50:49;;;;;;;;;;;;;;;-2.63;100.00;94089.00;2064921;28;20731;-85
2023/01/04 01:51:54;;;;;;;;;;;;;;;-2.58;100.00;94090.69;2029964;29;19937;-87
2023/01/04 01:52:57;;;;;;;;;;;;;;;-2.60;100.00;94090.97;2033311;29;20765;-85
2023/01/04 01:54:02;;;;;;;;;;;;;;;-2.50;100.00;94094.38;2040719;29;19914;-87
2023/01/04 01:55:05;;;;;;;;;;;;;;;-2.50;100.00;94092.53;2040596;29;19984;-86
2023/01/04 01:56:07;;;;;;;;;;;;;;;-2.35;100.00;94094.69;2041051;29;20032;-87
2023/01/04 01:57:11;;;;;;;;;;;;;;;-2.22;100.00;94092.19;2045348;28;19915;-86
2023/01/04 01:58:16;;;;;;;;;;;;;;;-2.32;100.00;94093.28;2058526;28;19909;-86
2023/01/04 01:59:18;;;;;;;;;;;;;;;-2.35;100.00;94093.91;2074110;28;19917;-86
2023/01/04 02:00:20;;;;;;;;;;;;;;;-2.37;100.00;94102.09;2080845;28;19975;-85
2023/01/04 02:01:21;;;;;;;;;;;;;;;-2.46;100.00;94090.81;2064918;28;19964;-84
2023/01/04 02:02:21;;;;;;;;;;;;;;;-2.47;100.00;94099.00;2064565;28;19910;-86
2023/01/04 02:03:25;;;;;;;;;;;;;;;-2.48;100.00;94098.22;2056624;28;19918;-87
2023/01/04 02:04:26;;;;;;;;;;;;;;;-2.56;100.00;94091.91;2041428;28;19921;-86
2023/01/04 02:05:28;;;;;;;;;;;;;;;-2.53;100.00;94093.16;2052223;28;19914;-86
2023/01/04 02:06:35;;;;;;;;;;;;;;;-2.53;100.00;94093.91;2065645;28;20016;-86
2023/01/04 02:07:36;;;;;;;;;;;;;;;-2.51;100.00;94098.84;2072593;28;19913;-86
2023/01/04 02:08:39;;;;;;;;;;;;;;;-2.58;100.00;94095.94;2072173;28;19932;-85
2023/01/04 02:09:40;;;;;;;;;;;;;;;-2.51;100.00;94095.44;2063474;28;19918;-86
2023/01/04 02:10:41;;;;;;;;;;;;;;;-2.53;100.00;94101.78;2055378;28;19918;-85
2023/01/04 02:11:42;;;;;;;;;;;;;;;-2.55;100.00;94096.09;2054413;28;19968;-86
2023/01/04 02:12:44;;;;;;;;;;;;;;;-2.54;100.00;94089.78;2050608;28;19914;-85
2023/01/04 02:15:04;;;;;;;;;;;;;;;-2.35;100.00;94084.19;2063739;28;19920;-85
2023/01/04 02:16:21;;;;;;;;;;;;;;;-2.45;100.00;94089.00;2063620;28;19910;-85
2023/01/04 02:17:31;;;;;;;;;;;;;;;-2.42;100.00;94081.28;2073194;28;19918;-86
2023/01/04 02:18:36;;;;;;;;;;;;;;;-2.47;100.00;94072.81;2072524;28;19917;-86
2023/01/04 02:19:55;;;;;;;;;;;;;;;-2.49;100.00;94078.38;2057376;28;19910;-85
2023/01/04 02:21:01;;;;;;;;;;;;;;;-2.53;100.00;94080.84;2053320;28;20656;-86
2023/01/04 02:22:19;;;;;;;;;;;;;;;-2.48;100.00;94079.13;2059165;28;19917;-87
2023/01/04 02:23:19;;;;;;;;;;;;;;;-2.55;100.00;94075.16;2057932;28;19918;-87
2023/01/04 02:24:23;;;;;;;;;;;;;;;-2.55;100.00;94072.53;2057332;28;19918;-86
2023/01/04 02:25:35;;;;;;;;;;;;;;;-2.56;100.00;94078.81;2065059;28;20004;-88
2023/01/04 02:26:36;;;;;;;;;;;;;;;-2.56;100.00;94078.06;2058335;28;19916;-87
2023/01/04 02:27:46;;;;;;;;;;;;;;;-2.57;100.00;94079.13;2056496;28;19914;-87
2023/01/04 02:29:14;;;;;;;;;;;;;;;-2.51;100.00;94072.66;2050992;28;19915;-86
2023/01/04 02:30:14;;;;;;;;;;;;;;;-2.53;100.00;94091.31;2055568;28;19933;-87
2023/01/04 02:31:28;;;;;;;;;;;;;;;-2.57;100.00;94085.16;2054288;28;19966;-87
2023/01/04 02:32:45;;;;;;;;;;;;;;;-2.59;100.00;94081.28;2076094;28;20366;-87
2023/01/04 02:34:11;;;;;;;;;;;;;;;-2.57;100.00;94087.00;2072581;28;19909;-86
2023/01/04 02:35:19;;;;;;;;;;;;;;;-2.58;100.00;94088.84;2061442;28;20302;-88
2023/01/04 02:36:20;;;;;;;;;;;;;;;-2.58;100.00;94085.47;2050322;28;19919;-86
2023/01/04 02:37:50;;;;;;;;;;;;;;;-2.58;100.00;94081.00;2051027;28;19911;-87
2023/01/04 02:39:09;;;;;;;;;;;;;;;-2.56;100.00;94078.06;2063450;28;19924;-86
2023/01/04 02:40:15;;;;;;;;;;;;;;;-2.54;100.00;94089.78;2067126;28;19965;-87
2023/01/04 02:41:36;;;;;;;;;;;;;;;-2.50;100.00;94076.84;2064541;28;20347;-87
2023/01/04 02:46:00;;;;;;;;;;;;;;;-2.44;100.00;94064.34;2064566;28;20306;-87
2023/01/04 02:47:14;;;;;;;;;;;;;;;-2.40;100.00;94071.28;2066889;28;19918;-87
2023/01/04 02:50:56;;;;;;;;;;;;;;;-2.38;100.00;94071.72;2072238;28;19913;-86
2023/01/04 02:52:04;;;;;;;;;;;;;;;-2.44;100.00;94061.75;2056515;28;19980;-87
2023/01/04 02:53:10;;;;;;;;;;;;;;;-2.42;100.00;94060.34;2049703;28;19911;-86
2023/01/04 02:54:14;;;;;;;;;;;;;;;-2.40;100.00;94058.19;2068153;28;19909;-86
2023/01/04 02:55:14;;;;;;;;;;;;;;;-2.33;100.00;94061.13;2080836;28;19908;-87
2023/01/04 02:56:35;;;;;;;;;;;;;;;-2.30;100.00;94063.09;2065585;28;19918;-87
2023/01/04 02:57:36;;;;;;;;;;;;;;;-2.31;100.00;94061.56;2056523;28;19917;-86
2023/01/04 02:58:52;;;;;;;;;;;;;;;-2.30;100.00;94064.94;2056322;28;20435;-87
2023/01/04 03:00:02;;;;;;;;;;;;;;;-2.31;100.00;94056.31;2077848;28;19936;-87
2023/01/04 03:07:34;;;;;;;;;;;;;;;-2.21;100.00;94042.13;2072436;28;19924;-86
2023/01/04 03:08:58;;;;;;;;;;;;;;;-2.22;100.00;94037.97;2061548;28;19989;-86
2023/01/04 03:10:04;;;;;;;;;;;;;;;-2.27;100.00;94043.38;2058498;28;19914;-86
2023/01/04 03:12:31;;;;;;;;;;;;;;;-2.24;100.00;94047.97;2059073;28;20360;-86
2023/01/04 03:13:39;;;;;;;;;;;;;;;-2.13;100.00;94048.44;2049040;28;20009;-86
2023/01/04 03:14:44;;;;;;;;;;;;;;;-2.08;100.00;94040.41;2050038;28;20079;-86
2023/01/04 03:15:49;;;;;;;;;;;;;;;-2.16;100.00;94043.81;2056456;28;19949;-86
2023/01/04 03:16:55;;;;;;;;;;;;;;;-2.19;100.00;94042.59;2051160;28;19914;-87
2023/01/04 03:18:06;;;;;;;;;;;;;;;-2.15;100.00;94038.28;2049270;28;19946;-87
2023/01/04 03:19:08;;;;;;;;;;;;;;;-2.10;100.00;94048.59;2050936;28;20348;-87
2023/01/04 03:20:10;;;;;;;;;;;;;;;-2.13;100.00;94043.19;2055445;28;19925;-87
2023/01/04 03:21:14;;;;;;;;;;;;;;;-2.14;100.00;94042.44;2049473;28;19914;-85
2023/01/04 03:36:18;;;;;;;;;;;;;;;-1.92;100.00;94025.72;2071640;28;19917;-84
2023/01/04 03:37:37;;;;;;;;;;;;;;;-1.94;100.00;94025.25;2057751;28;19914;-84
2023/01/04 03:49:26;;;;;;;;;;;;;;;-1.77;100.00;94022.56;2057165;28;20371;-86
2023/01/04 03:50:31;;;;;;;;;;;;;;;-1.75;100.00;94021.50;2061767;28;19914;-88
2023/01/04 03:51:35;;;;;;;;;;;;;;;-1.68;100.00;94021.75;2056901;28;19942;-87
2023/01/04 03:52:38;;;;;;;;;;;;;;;-1.52;100.00;94020.91;2061609;28;19909;-86
2023/01/04 03:53:44;;;;;;;;;;;;;;;-1.49;100.00;94016.09;2061721;28;19921;-87
2023/01/04 03:54:46;;;;;;;;;;;;;;;-1.47;100.00;94021.81;2051421;28;19911;-87
2023/01/04 03:55:48;;;;;;;;;;;;;;;-1.48;100.00;94020.28;2059867;28;19910;-86
2023/01/04 03:56:50;;;;;;;;;;;;;;;-1.53;100.00;94019.38;2074730;28;19999;-86
2023/01/04 03:57:51;;;;;;;;;;;;;;;-1.56;100.00;94020.00;2061001;28;19921;-86
2023/01/04 03:58:53;;;;;;;;;;;;;;;-1.48;100.00;94013.19;2063750;28;19921;-86
2023/01/04 03:59:58;;;;;;;;;;;;;;;-1.52;100.00;94010.41;2053381;28;20033;-86
2023/01/04 04:01:02;;;;;;;;;;;;;;;-1.51;100.00;94013.81;2057935;28;19918;-88
2023/01/04 04:02:06;;;;;;;;;;;;;;;-1.52;100.00;94014.91;2073517;28;19921;-87
2023/01/04 04:03:07;;;;;;;;;;;;;;;-1.56;100.00;94019.22;2067914;28;19914;-87
2023/01/04 04:08:28;;;;;;;;;;;;;;;-1.53;100.00;94013.38;2065174;28;19918;-88
2023/01/04 04:09:29;;;;;;;;;;;;;;;-1.41;100.00;94013.44;2064078;28;19921;-88
2023/01/04 04:10:30;;;;;;;;;;;;;;;-1.38;100.00;94004.16;2069279;28;20482;-87
2023/01/04 04:11:31;;;;;;;;;;;;;;;-1.45;100.00;94014.38;2065233;28;19909;-87
2023/01/04 04:12:36;;;;;;;;;;;;;;;-1.46;100.00;94007.59;2065091;28;20363;-86
2023/01/04 04:13:37;;;;;;;;;;;;;;;-1.45;100.00;94003.91;2053314;28;19942;-86
2023/01/04 04:14:38;;;;;;;;;;;;;;;-1.45;100.00;94009.91;2065344;28;20001;-87
2023/01/04 04:15:39;;;;;;;;;;;;;;;-1.46;100.00;94012.84;2065162;28;19918;-87
2023/01/04 04:16:50;;;;;;;;;;;;;;;-1.46;100.00;94013.63;2057571;28;19914;-86
2023/01/04 04:17:51;;;;;;;;;;;;;;;-1.45;100.00;94003.91;2064154;28;20374;-87
2023/01/04 04:18:52;;;;;;;;;;;;;;;-1.42;100.00;94004.03;2081639;28;19924;-86
2023/01/04 04:19:53;;;;;;;;;;;;;;;-1.42;100.00;94000.66;2064427;28;19937;-85
2023/01/04 04:20:57;;;;;;;;;;;;;;;-1.41;100.00;94005.56;2056211;28;19949;-87
2023/01/04 04:21:58;;;;;;;;;;;;;;;-1.38;100.00;94002.31;2060800;28;19937;-86
2023/01/04 04:22:58;;;;;;;;;;;;;;;-1.38;100.00;94001.56;2075004;28;19920;-87
2023/01/04 04:23:59;;;;;;;;;;;;;;;-1.38;100.00;94004.94;2057542;28;19914;-87
2023/01/04 04:25:01;;;;;;;;;;;;;;;-1.39;100.00;94002.66;2061083;28;20025;-85
2023/01/04 04:26:02;;;;;;;;;;;;;;;-1.33;100.00;94002.13;2052808;28;19918;-86
2023/01/04 04:27:16;;;;;;;;;;;;;;;-1.39;100.00;94000.78;2066871;28;20409;-87
2023/01/04 04:28:17;;;;;;;;;;;;;;;-1.31;100.00;94001.81;2073756;28;19928;-87
2023/01/04 04:29:18;;;;;;;;;;;;;;;-1.19;100.00;94001.88;2078875;28;20374;-87
2023/01/04 04:30:18;;;;;;;;;;;;;;;-1.21;100.00;93998.81;2058705;28;19921;-87
2023/01/04 04:31:23;;;;;;;;;;;;;;;-1.17;100.00;94004.97;2055986;28;20378;-87
2023/01/04 04:32:23;;;;;;;;;;;;;;;-1.18;100.00;94006.06;2065635;28;20004;-86
2023/01/04 04:33:24;;;;;;;;;;;;;;;-1.02;100.00;93995.75;2053529;28;19918;-87
2023/01/04 04:34:25;;;;;;;;;;;;;;;-1.11;100.00;93998.44;2056454;28;20347;-87
2023/01/04 04:35:26;;;;;;;;;;;;;;;-1.11;100.00;93995.81;2046162;29;20407;-87
2023/01/04 04:36:27;;;;;;;;;;;;;;;-0.96;100.00;94002.34;2041528;29;19942;-87
2023/01/04 04:37:30;;;;;;;;;;;;;;;-1.08;100.00;94003.03;2058084;28;19914;-88
2023/01/04 04:38:31;;;;;;;;;;;;;;;-1.13;100.00;94011.09;2057960;28;19922;-86
2023/01/04 04:39:32;;;;;;;;;;;;;;;-1.11;100.00;94008.16;2066340;28;20032;-87
2023/01/04 04:41:54;;;;;;;;;;;;;;;-1.12;100.00;93996.13;2079192;28;19917;-87
2023/01/04 04:42:55;;;;;;;;;;;;;;;-1.19;100.00;93990.63;2057641;28;19914;-87
2023/01/04 04:43:56;;;;;;;;;;;;;;;-1.11;100.00;93990.56;2065690;28;19932;-86
2023/01/04 04:44:57;;;;;;;;;;;;;;;-1.18;100.00;93987.69;2072384;28;20056;-87
2023/01/04 04:45:58;;;;;;;;;;;;;;;-1.13;100.00;93989.34;2081984;28;20424;-88
2023/01/04 04:47:10;;;;;;;;;;;;;;;-1.20;100.00;93984.59;2078533;28;19913;-87
2023/01/04 04:48:11;;;;;;;;;;;;;;;-1.13;100.00;93984.88;2066941;28;20310;-86
2023/01/04 04:49:12;;;;;;;;;;;;;;;-1.08;100.00;93983.91;2065320;28;19913;-87
2023/01/04 04:50:13;;;;;;;;;;;;;;;-1.09;100.00;93985.00;2057699;28;19910;-87
2023/01/04 04:51:14;;;;;;;;;;;;;;;-1.09;100.00;93988.41;2065188;28;19976;-88
2023/01/04 04:52:15;;;;;;;;;;;;;;;-0.93;100.00;93985.19;2059435;28;19928;-87
2023/01/04 04:53:15;;;;;;;;;;;;;;;-0.90;100.00;93990.56;2057227;28;20521;-87
2023/01/04 04:54:18;;;;;;;;;;;;;;;-0.92;100.00;93982.25;2057073;28;19914;-86
2023/01/04 04:55:18;;;;;;;;;;;;;;;-0.95;100.00;93990.00;2064212;28;19920;-87
2023/01/04 04:56:19;;;;;;;;;;;;;;;-1.00;100.00;93982.31;2065242;28;19917;-87
2023/01/04 04:57:20;;;;;;;;;;;;;;;-1.00;100.00;93988.34;2065279;28;19910;-88
2023/01/04 04:58:22;;;;;;;;;;;;;;;-1.03;100.00;93989.72;2065249;28;20330;-87
2023/01/04 04:59:22;;;;;;;;;;;;;;;-1.01;100.00;93984.16;2065471;28;20005;-86
2023/01/04 05:00:23;;;;;;;;;;;;;;;-1.00;100.00;93987.56;2065068;28;19909;-87
2023/01/04 05:01:24;;;;;;;;;;;;;;;-0.87;100.00;93991.78;2057255;28;19925;-88
2023/01/04 05:02:25;;;;;;;;;;;;;;;-0.90;100.00;93990.56;2057318;28;19994;-86
2023/01/04 05:03:26;;;;;;;;;;;;;;;-0.91;100.00;93991.66;2049680;28;20467;-87
2023/01/04 05:04:26;;;;;;;;;;;;;;;-0.92;100.00;93992.75;2057123;28;19914;-87
2023/01/04 05:05:27;;;;;;;;;;;;;;;-0.90;100.00;93992.41;2053383;28;19910;-87
2023/01/04 05:06:35;;;;;;;;;;;;;;;-0.85;100.00;93990.34;2055111;28;20007;-84
2023/01/04 05:07:36;;;;;;;;;;;;;;;-0.82;100.00;93986.34;2058378;28;20466;-86
2023/01/04 05:08:37;;;;;;;;;;;;;;;-0.78;100.00;93989.84;2065370;28;19952;-87
2023/01/04 05:09:38;;;;;;;;;;;;;;;-0.80;100.00;93984.13;2065039;28;19937;-87
2023/01/04 05:10:39;;;;;;;;;;;;;;;-0.80;100.00;93992.78;2057069;28;19961;-87
2023/01/04 05:12:59;;;;;;;;;;;;;;;-0.73;100.00;93992.28;2054316;28;19997;-87
2023/01/04 05:14:00;;;;;;;;;;;;;;;-0.76;100.00;93985.81;2057279;28;19977;-87
2023/01/04 05:15:01;;;;;;;;;;;;;;;-0.77;100.00;93988.75;2057124;28;20278;-87
2023/01/04 05:16:03;;;;;;;;;;;;;;;-0.69;100.00;93990.53;2065507;28;19909;-86
2023/01/04 05:17:04;;;;;;;;;;;;;;;-0.51;100.00;93984.03;2073171;28;19909;-88
2023/01/04 05:18:06;;;;;;;;;;;;;;;-0.58;100.00;93989.03;2065782;28;19957;-87
2023/01/04 05:19:06;;;;;;;;;;;;;;;-0.62;100.00;93988.13;2072236;28;20317;-85
2023/01/04 05:20:07;;;;;;;;;;;;;;;-0.60;100.00;93980.72;2059453;28;19918;-86
2023/01/04 05:21:08;;;;;;;;;;;;;;;-0.53;100.00;93983.59;2073389;28;20383;-88
2023/01/04 05:22:09;;;;;;;;;;;;;;;-0.46;100.00;93985.69;2073172;28;19956;-87
2023/01/04 05:23:11;;;;;;;;;;;;;;;-0.46;100.00;93977.81;2057233;28;19914;-86
2023/01/04 05:24:12;;;;;;;;;;;;;;;-0.46;100.00;93980.44;2065055;28;19910;-87
2023/01/04 05:25:13;;;;;;;;;;;;;;;-0.44;100.00;93982.72;2064757;28;19929;-87
2023/01/04 05:26:20;;;;;;;;;;;;;;;-0.42;100.00;93985.81;2065088;28;20370;-87
2023/01/04 05:27:21;;;;;;;;;;;;;;;-0.39;100.00;93988.56;2072990;28;20000;-86
2023/01/04 05:28:24;;;;;;;;;;;;;;;-0.35;100.00;93991.28;2073233;28;19964;-86
2023/01/04 05:30:49;;;;;;;;;;;;;;;-0.40;100.00;93994.13;2061614;28;19914;-87
2023/01/04 05:31:50;;;;;;;;;;;;;;;-0.41;100.00;94000.47;2075575;28;19952;-85
2023/01/04 05:32:51;;;;;;;;;;;;;;;-0.40;100.00;93999.38;2065892;28;19914;-85
2023/01/04 05:33:57;;;;;;;;;;;;;;;-0.46;100.00;93990.94;2057427;28;20518;-86
2023/01/04 05:34:59;;;;;;;;;;;;;;;-0.51;100.00;94002.41;2061076;28;20382;-86
2023/01/04 05:36:03;;;;;;;;;;;;;;;-0.52;100.00;94000.13;2056781;28;20004;-87
2023/01/04 05:37:20;;;;;;;;;;;;;;;-0.55;100.00;94006.00;2057448;28;19918;-86
2023/01/04 05:38:21;;;;;;;;;;;;;;;-0.57;100.00;94002.94;2059646;28;19914;-86
2023/01/04 05:39:24;;;;;;;;;;;;;;;-0.59;100.00;93998.00;2056967;28;20009;-85
2023/01/04 05:40:24;;;;;;;;;;;;;;;-0.57;100.00;94005.56;2061008;28;19918;-87
2023/01/04 05:42:45;;;;;;;;;;;;;;;-0.60;100.00;93995.72;2059422;28;20000;-86
2023/01/04 05:43:45;;;;;;;;;;;;;;;-0.60;100.00;93996.47;2058132;28;19913;-86
2023/01/04 05:44:46;;;;;;;;;;;;;;;-0.61;100.00;93997.56;2057029;28;20078;-86
2023/01/04 05:45:51;;;;;;;;;;;;;;;-0.55;100.00;93982.38;2049018;28;19914;-84
2023/01/04 05:46:52;;;;;;;;;;;;;;;-0.59;100.00;93987.50;2060783;28;19914;-86
2023/01/04 05:47:53;;;;;;;;;;;;;;;-0.55;100.00;93987.63;2064933;28;19948;-86
2023/01/04 05:48:54;;;;;;;;;;;;;;;-0.54;100.00;93986.53;2064841;28;19945;-87
2023/01/04 05:49:55;;;;;;;;;;;;;;;-0.56;100.00;93983.47;2064895;28;20144;-87
2023/01/04 05:50:56;;;;;;;;;;;;;;;-0.56;100.00;93986.88;2064703;28;20025;-86
2023/01/04 05:51:57;;;;;;;;;;;;;;;-0.53;100.00;93982.81;2064820;28;19914;-87
2023/01/04 05:52:58;;;;;;;;;;;;;;;-0.54;100.00;93983.91;2048974;28;19917;-87
2023/01/04 05:53:58;;;;;;;;;;;;;;;-0.60;100.00;93988.59;2065061;28;19910;-87
2023/01/04 05:54:59;;;;;;;;;;;;;;;-0.54;100.00;93979.41;2064971;28;19914;-87
2023/01/04 05:56:00;;;;;;;;;;;;;;;-0.52;100.00;93977.25;2064885;28;20000;-87
2023/01/04 05:57:01;;;;;;;;;;;;;;;-0.55;100.00;93975.28;2065008;28;20044;-87
2023/01/04 05:58:02;;;;;;;;;;;;;;;-0.56;100.00;93971.13;2056837;28;19910;-88
2023/01/04 05:59:03;;;;;;;;;;;;;;;-0.51;100.00;93972.78;2064981;28;19925;-87
2023/01/04 06:00:05;;;;;;;;;;;;;;;-0.53;100.00;93973.09;2064963;28;20354;-85
2023/01/04 06:01:06;;;;;;;;;;;;;;;-0.54;100.00;93976.03;2072851;28;19939;-88
2023/01/04 06:02:11;;;;;;;;;;;;;;;-0.52;100.00;93981.75;2072997;28;19953;-87
2023/01/04 06:03:12;;;;;;;;;;;;;;;-0.50;100.00;93979.53;2065278;28;19910;-86
2023/01/04 06:04:13;;;;;;;;;;;;;;;-0.51;100.00;93983.28;2064673;28;19921;-87
2023/01/04 06:05:14;;;;;;;;;;;;;;;-0.43;100.00;93992.94;2064894;28;19941;-85
2023/01/04 06:06:15;;;;;;;;;;;;;;;-0.47;100.00;93989.41;2067147;28;20367;-87
2023/01/04 06:07:24;;;;;;;;;;;;;;;-0.44;100.00;93987.97;2058939;28;19920;-88
2023/01/04 06:08:35;;;;;;;;;;;;;;;-0.50;100.00;93992.69;2064894;28;19909;-88
2023/01/04 06:09:35;;;;;;;;;;;;;;;-0.51;100.00;93989.28;2070850;28;20381;-86
2023/01/04 06:10:36;;;;;;;;;;;;;;;-0.48;100.00;93987.88;2064804;28;19914;-89
2023/01/04 06:11:37;;;;;;;;;;;;;;;-0.48;100.00;93990.50;2056889;28;20005;-85
2023/01/04 06:12:38;;;;;;;;;;;;;;;-0.47;100.00;93986.03;2064655;28;19972;-85
2023/01/04 06:13:39;;;;;;;;;;;;;;;-0.43;100.00;93986.91;2064881;28;20004;-87
2023/01/04 06:14:40;;;;;;;;;;;;;;;-0.45;100.00;93991.69;2064904;28;19909;-87
2023/01/04 06:15:43;;;;;;;;;;;;;;;-0.42;100.00;93991.81;2056726;28;20426;-87